Leoben, Austria
Current Conditions -  °F | °C
As of 7:50 AM on Sunday 26 Oct 2014 (Local Time) from LOXZ Reporting Station
Broken Clouds Broken Clouds  
Wind Chill: 39°   Ceiling: 2500
Heat Index: 39°   Visibility: 16mi
Dew Point: 37°   Wind: 2mph
Humidity: 93%   Direction: NA
Pressure: 30.33"   Gusts: NA
Location:  47.38°N, 15.09°E
Report Text: LOXZ 260550Z VRB02KT 25KM SCT007ST BKN025SC 04/03 Q1027 RMKBKN
Loading
Personal Weather Stations






























Interactive Weather Map
Tropical Storm Tracking
New forecast layout! Learn more

10-Day Weather Forecast

Advertisements
Track Severe Weather on mobile